createdAt,value
2022-11-15T00:02:42.811Z,93.10
2022-11-15T00:06:25.036Z,93.20
2022-11-15T00:10:08.619Z,93.10
2022-11-15T00:13:51.790Z,92.80
2022-11-15T00:17:33.707Z,92.80
2022-11-15T00:21:17.190Z,92.70
2022-11-15T00:24:59.125Z,92.70
2022-11-15T00:28:41.735Z,92.50
2022-11-15T00:32:25.098Z,92.50
2022-11-15T00:36:11.640Z,92.30
2022-11-15T00:39:53.558Z,92.20
2022-11-15T00:43:36.015Z,92.10
2022-11-15T00:47:18.169Z,91.80
2022-11-15T00:51:01.810Z,91.50
2022-11-15T00:54:44.012Z,91.10
2022-11-15T00:58:26.308Z,91.20
2022-11-15T01:02:08.373Z,90.60
2022-11-15T01:05:52.250Z,90.50
2022-11-15T01:09:37.840Z,90.30
2022-11-15T01:13:19.691Z,90.10
2022-11-15T01:17:02.029Z,90.20
2022-11-15T01:20:44.522Z,90.10
2022-11-15T01:24:26.468Z,90.10
2022-11-15T01:28:09.897Z,89.80
2022-11-15T01:31:51.985Z,89.40
2022-11-15T01:35:34.283Z,88.50
2022-11-15T01:39:17.592Z,88.10
2022-11-15T01:42:59.804Z,87.80
2022-11-15T01:46:50.046Z,87.60
2022-11-15T01:50:35.066Z,87.90
2022-11-15T01:54:22.703Z,88.50
2022-11-15T01:58:08.619Z,88.70
2022-11-15T02:01:52.998Z,89.20
2022-11-15T02:05:38.256Z,90.10
2022-11-15T02:09:20.595Z,90.60
2022-11-15T02:13:04.198Z,91.20
2022-11-15T02:17:00.786Z,91.60
2022-11-15T02:20:54.647Z,91.70
2022-11-15T02:25:03.009Z,91.90
2022-11-15T02:29:00.902Z,91.80
2022-11-15T02:32:52.853Z,91.40
2022-11-15T02:36:50.543Z,91.00
2022-11-15T02:40:43.879Z,90.60
2022-11-15T02:44:33.558Z,90.20
2022-11-15T02:48:19.609Z,90.00
2022-11-15T02:52:01.674Z,89.50
2022-11-15T02:55:50.262Z,89.40
2022-11-15T03:00:08.613Z,89.20
2022-11-15T03:04:05.536Z,88.90
2022-11-15T03:08:02.652Z,90.00
2022-11-15T03:11:52.613Z,89.80
2022-11-15T03:15:45.432Z,89.90
2022-11-15T03:19:38.067Z,89.70
2022-11-15T03:23:20.283Z,89.00
2022-11-15T03:27:05.988Z,89.00
2022-11-15T03:30:51.663Z,88.70
2022-11-15T03:34:41.931Z,88.70
2022-11-15T03:38:27.691Z,88.80
2022-11-15T03:42:25.767Z,88.80
2022-11-15T03:46:15.227Z,89.00
2022-11-15T03:50:04.854Z,89.80
2022-11-15T03:53:48.560Z,90.00
2022-11-15T03:57:31.276Z,90.20
2022-11-15T04:01:13.679Z,90.40
2022-11-15T04:04:55.831Z,90.50
2022-11-15T04:08:39.659Z,90.60
2022-11-15T04:12:31.573Z,90.60
2022-11-15T04:16:13.810Z,90.40
2022-11-15T04:20:13.569Z,90.20
2022-11-15T04:24:15.329Z,90.20
2022-11-15T04:27:57.332Z,90.10
2022-11-15T04:31:39.507Z,90.00
2022-11-15T04:35:21.714Z,89.90
2022-11-15T04:39:05.807Z,89.80
2022-11-15T04:42:48.137Z,89.80
2022-11-15T04:46:30.439Z,89.90
2022-11-15T04:50:14.260Z,90.00
2022-11-15T04:53:56.442Z,89.80
2022-11-15T04:57:40.587Z,89.40
2022-11-15T05:01:22.805Z,89.00
2022-11-15T05:05:05.280Z,89.00
2022-11-15T05:08:47.663Z,89.20
2022-11-15T05:12:29.958Z,89.50
2022-11-15T05:16:13.570Z,89.80
2022-11-15T05:19:55.918Z,90.00
2022-11-15T05:23:38.396Z,90.20
2022-11-15T05:27:20.428Z,90.00
2022-11-15T05:31:04.028Z,89.30
2022-11-15T05:34:48.331Z,89.10
2022-11-15T05:38:32.606Z,88.70
2022-11-15T05:42:17.573Z,88.40
2022-11-15T05:46:01.825Z,88.60
2022-11-15T05:49:48.824Z,89.10
2022-11-15T05:53:32.657Z,89.30
2022-11-15T05:57:15.291Z,89.60
2022-11-15T06:00:57.643Z,89.40
2022-11-15T06:04:39.703Z,89.60
2022-11-15T06:08:23.218Z,89.90
2022-11-15T06:12:05.807Z,90.00
2022-11-15T06:15:47.806Z,90.40
2022-11-15T06:19:33.759Z,90.80
2022-11-15T06:23:16.054Z,90.90
2022-11-15T06:26:59.924Z,91.00
2022-11-15T06:30:41.783Z,90.90
2022-11-15T06:34:23.914Z,90.80
2022-11-15T06:38:09.501Z,90.60
2022-11-15T06:41:51.375Z,90.50
2022-11-15T06:45:35.391Z,90.50
2022-11-15T06:49:17.876Z,90.40
2022-11-15T06:53:04.158Z,90.40
2022-11-15T06:56:46.296Z,90.60
2022-11-15T07:00:28.428Z,90.70
2022-11-15T07:04:12.128Z,90.70
2022-11-15T07:07:55.373Z,91.00
2022-11-15T07:11:37.839Z,91.60
2022-11-15T07:15:21.495Z,91.90
2022-11-15T07:19:03.930Z,91.60
2022-11-15T07:22:47.424Z,91.50
2022-11-15T07:26:29.764Z,91.80
2022-11-15T07:30:15.684Z,92.30
2022-11-15T07:33:58.654Z,92.90
2022-11-15T07:37:40.938Z,93.50
2022-11-15T07:41:24.672Z,93.90
2022-11-15T07:45:08.343Z,94.30
2022-11-15T07:48:50.296Z,94.80
2022-11-15T07:52:32.336Z,95.20
2022-11-15T07:56:14.860Z,95.60
2022-11-15T07:59:58.575Z,96.30
2022-11-15T08:03:41.086Z,96.70
2022-11-15T08:07:23.005Z,97.10
2022-11-15T08:11:06.014Z,96.90
2022-11-15T08:14:48.222Z,96.50
2022-11-15T08:18:31.727Z,96.40
2022-11-15T08:22:13.705Z,96.30
2022-11-15T08:26:02.945Z,96.50
2022-11-15T08:29:47.193Z,96.00
2022-11-15T08:33:32.029Z,95.90
2022-11-15T08:37:14.358Z,95.10
2022-11-15T08:41:04.520Z,94.60
2022-11-15T08:44:46.407Z,93.80
2022-11-15T08:48:28.936Z,94.20
2022-11-15T08:52:12.547Z,93.70
2022-11-15T08:55:55.380Z,93.50
2022-11-15T08:59:40.071Z,93.80
2022-11-15T09:03:22.633Z,93.80
2022-11-15T09:07:04.946Z,94.20
2022-11-15T09:10:48.625Z,94.70
2022-11-15T09:14:30.447Z,95.40
2022-11-15T09:18:12.833Z,96.40
2022-11-15T09:21:55.324Z,96.20
2022-11-15T09:25:37.439Z,96.20
2022-11-15T09:29:21.409Z,96.70
2022-11-15T09:33:09.659Z,97.30
2022-11-15T09:36:51.631Z,97.60
2022-11-15T09:40:38.409Z,97.80
2022-11-15T09:44:42.913Z,97.10
2022-11-15T09:48:50.719Z,95.80
2022-11-15T09:52:36.201Z,95.70
2022-11-15T09:56:07.613Z,96.00
2022-11-15T10:00:23.713Z,95.10
2022-11-15T10:03:46.596Z,95.20
2022-11-15T10:07:21.061Z,96.70
2022-11-15T10:11:00.610Z,96.50
2022-11-15T10:14:34.252Z,97.10
2022-11-15T10:18:16.751Z,97.60
2022-11-15T10:21:57.013Z,97.20
2022-11-15T10:25:25.051Z,96.90
2022-11-15T10:28:48.626Z,96.60
2022-11-15T10:32:13.791Z,96.50
2022-11-15T10:35:38.798Z,96.00
2022-11-15T10:39:02.351Z,95.50
2022-11-15T10:42:31.407Z,95.40
2022-11-15T10:45:54.977Z,94.70
2022-11-15T10:49:21.486Z,95.30
2022-11-15T10:52:49.267Z,94.60
2022-11-15T10:56:17.603Z,94.00
2022-11-15T10:59:47.496Z,93.90
2022-11-15T11:03:31.574Z,93.90
2022-11-15T11:06:57.999Z,92.00
2022-11-15T11:14:19.115Z,92.20
2022-11-15T11:17:59.829Z,91.80
2022-11-15T11:21:41.229Z,91.50
2022-11-15T11:25:26.468Z,91.70
2022-11-15T11:29:04.257Z,91.40
2022-11-15T11:32:55.186Z,91.90
2022-11-15T11:36:29.341Z,92.20
2022-11-15T11:40:16.465Z,93.00
2022-11-15T11:43:57.843Z,93.20
2022-11-15T11:47:26.928Z,93.60
2022-11-15T11:50:51.383Z,93.90
2022-11-15T11:54:23.120Z,94.30
2022-11-15T11:57:57.995Z,94.00
2022-11-15T12:01:28.860Z,93.80
2022-11-15T12:04:59.979Z,93.10
2022-11-15T12:08:37.949Z,93.10
2022-11-15T12:12:12.478Z,92.50
2022-11-15T12:15:45.454Z,92.70
2022-11-15T12:19:11.460Z,93.60
2022-11-15T12:22:45.106Z,94.20
2022-11-15T12:26:20.064Z,93.80
2022-11-15T12:29:49.462Z,93.40
2022-11-15T12:33:37.109Z,93.00
2022-11-15T12:37:02.051Z,91.40
2022-11-15T12:40:35.814Z,92.30
2022-11-15T12:44:00.267Z,91.70
2022-11-15T12:47:28.899Z,92.20
2022-11-15T12:50:59.128Z,91.70
2022-11-15T12:55:24.844Z,91.60
2022-11-15T12:58:53.687Z,91.00
2022-11-15T13:02:22.555Z,91.60
2022-11-15T13:06:38.570Z,91.60
2022-11-15T13:10:03.078Z,91.10
2022-11-15T13:13:46.451Z,91.90
2022-11-15T13:17:30.664Z,90.70
2022-11-15T13:20:59.425Z,91.00
2022-11-15T13:24:25.804Z,91.80
2022-11-15T13:27:51.862Z,91.80
2022-11-15T13:31:31.336Z,91.90
2022-11-15T13:34:56.359Z,91.30
2022-11-15T13:38:29.400Z,92.10
2022-11-15T13:41:54.717Z,92.00
2022-11-15T13:45:21.526Z,92.20
2022-11-15T13:48:47.803Z,91.90
2022-11-15T13:52:17.400Z,91.80
2022-11-15T13:55:40.944Z,91.40
2022-11-15T13:59:12.599Z,91.70
2022-11-15T14:02:38.582Z,91.10
2022-11-15T14:06:11.359Z,91.10
2022-11-15T14:09:39.859Z,91.20
2022-11-15T14:13:05.329Z,91.10
2022-11-15T14:16:38.265Z,91.30
2022-11-15T14:20:02.218Z,90.70
2022-11-15T14:23:29.222Z,91.10
2022-11-15T14:26:54.248Z,90.90
2022-11-15T14:30:19.321Z,90.90
2022-11-15T14:33:43.727Z,91.10
2022-11-15T14:37:07.301Z,91.10
2022-11-15T14:40:30.941Z,91.30
2022-11-15T14:43:56.069Z,91.50
2022-11-15T14:47:20.134Z,91.30
2022-11-15T14:50:46.921Z,91.90
2022-11-15T14:54:12.607Z,91.60
2022-11-15T14:57:36.113Z,91.40
2022-11-15T15:01:01.307Z,91.60
2022-11-15T15:04:25.261Z,91.50
2022-11-15T15:07:50.130Z,91.80
2022-11-15T15:11:19.178Z,91.80
2022-11-15T15:14:42.650Z,91.60
2022-11-15T15:18:09.467Z,91.90
2022-11-15T15:21:37.168Z,91.70
2022-11-15T15:25:01.245Z,91.90
2022-11-15T15:28:26.688Z,91.80
2022-11-15T15:31:53.606Z,91.90
2022-11-15T15:35:19.933Z,91.70
2022-11-15T15:38:43.606Z,92.00
2022-11-15T15:42:07.219Z,92.40
2022-11-15T15:45:31.186Z,92.20
2022-11-15T15:48:54.721Z,92.10
2022-11-15T15:52:20.391Z,91.70
2022-11-15T15:55:43.952Z,91.60
2022-11-15T15:59:07.487Z,92.20
2022-11-15T16:02:33.101Z,92.10
2022-11-15T16:06:00.280Z,91.90
2022-11-15T16:09:45.808Z,91.80
2022-11-15T16:13:09.740Z,91.80
2022-11-15T16:16:33.392Z,92.00
2022-11-15T16:19:57.106Z,91.90
2022-11-15T16:23:24.522Z,91.90
2022-11-15T16:26:52.267Z,91.90
2022-11-15T16:30:18.657Z,91.70
2022-11-15T16:33:42.656Z,91.80
2022-11-15T16:37:07.022Z,92.00
2022-11-15T16:40:33.188Z,92.20
2022-11-15T16:43:58.110Z,91.70
2022-11-15T16:47:22.801Z,91.60
2022-11-15T16:50:46.491Z,92.10
2022-11-15T16:54:10.033Z,92.20
2022-11-15T16:57:33.543Z,91.90
2022-11-15T17:00:58.679Z,91.60
2022-11-15T17:04:22.700Z,91.50
2022-11-15T17:07:50.545Z,91.60
2022-11-15T17:11:18.901Z,91.60
2022-11-15T17:14:42.341Z,91.40
2022-11-15T17:18:07.657Z,91.70
2022-11-15T17:21:33.811Z,91.40
2022-11-15T17:24:57.643Z,91.80
2022-11-15T17:28:21.282Z,91.70
2022-11-15T17:31:48.126Z,91.70
2022-11-15T17:35:16.600Z,91.80
2022-11-15T17:38:42.952Z,91.50
2022-11-15T17:42:13.368Z,91.70
2022-11-15T17:45:41.866Z,91.40
2022-11-15T17:49:05.297Z,91.60
2022-11-15T17:52:30.638Z,91.60
2022-11-15T17:55:54.344Z,91.50
2022-11-15T17:59:21.333Z,91.60
2022-11-15T18:02:45.327Z,91.70
2022-11-15T18:06:10.293Z,91.80
2022-11-15T18:09:35.451Z,91.70
2022-11-15T18:12:58.870Z,91.80
2022-11-15T18:16:25.966Z,92.10
2022-11-15T18:19:49.557Z,92.00
2022-11-15T18:23:12.984Z,92.10
2022-11-15T18:26:37.692Z,92.00
2022-11-15T18:30:01.062Z,91.80
2022-11-15T18:33:24.659Z,92.00
2022-11-15T18:36:52.374Z,91.90
2022-11-15T18:40:16.022Z,91.50
2022-11-15T18:43:42.249Z,91.80
2022-11-15T18:47:05.830Z,91.20
2022-11-15T18:50:29.383Z,91.50
2022-11-15T18:53:54.911Z,91.30
2022-11-15T18:57:18.335Z,91.10
2022-11-15T19:00:43.133Z,91.30
2022-11-15T19:04:10.608Z,91.10
2022-11-15T19:07:34.061Z,91.20
2022-11-15T19:10:57.510Z,91.20
2022-11-15T19:14:24.093Z,91.30
2022-11-15T19:17:49.114Z,91.20
2022-11-15T19:21:16.003Z,91.10
2022-11-15T19:24:39.588Z,91.00
2022-11-15T19:28:02.990Z,91.00
2022-11-15T19:31:28.509Z,91.00
2022-11-15T19:34:53.278Z,91.00
2022-11-15T19:38:16.813Z,90.90
2022-11-15T19:41:42.234Z,91.10
2022-11-15T19:45:06.497Z,91.00
2022-11-15T19:48:32.004Z,91.10
2022-11-15T19:51:56.783Z,91.20
2022-11-15T19:55:20.251Z,91.20
2022-11-15T19:58:45.223Z,91.40
2022-11-15T20:02:11.839Z,91.30
2022-11-15T20:05:35.221Z,91.40
2022-11-15T20:09:00.439Z,91.30
2022-11-15T20:12:23.821Z,91.00
2022-11-15T20:15:47.208Z,91.20
2022-11-15T20:19:12.306Z,91.30
2022-11-15T20:22:35.849Z,91.40
2022-11-15T20:26:00.708Z,91.50
2022-11-15T20:29:24.376Z,91.40
2022-11-15T20:32:47.917Z,91.50
2022-11-15T20:36:14.335Z,91.50
2022-11-15T20:39:37.931Z,91.30
2022-11-15T20:43:03.128Z,91.30
2022-11-15T20:46:26.529Z,91.30
2022-11-15T20:49:50.027Z,91.50
2022-11-15T20:53:16.758Z,91.60
2022-11-15T20:56:40.213Z,91.60
2022-11-15T21:00:06.465Z,91.80
2022-11-15T21:03:30.044Z,91.70
2022-11-15T21:06:53.514Z,91.80
2022-11-15T21:10:34.831Z,91.90
2022-11-15T21:13:58.525Z,91.90
2022-11-15T21:17:23.616Z,91.90
2022-11-15T21:20:47.229Z,91.80
2022-11-15T21:24:11.921Z,91.90
2022-11-15T21:27:35.544Z,91.90
2022-11-15T21:31:01.445Z,91.90
2022-11-15T21:34:26.359Z,91.70
2022-11-15T21:37:56.154Z,91.60
2022-11-15T21:41:20.463Z,91.70
2022-11-15T21:44:44.310Z,91.70
2022-11-15T21:48:08.442Z,91.30
2022-11-15T21:51:34.125Z,91.20
2022-11-15T21:54:57.553Z,91.20
2022-11-15T21:58:22.290Z,91.60
2022-11-15T22:02:03.623Z,91.70
2022-11-15T22:05:26.989Z,91.70
2022-11-15T22:08:51.813Z,91.70
2022-11-15T22:12:15.289Z,91.70
2022-11-15T22:15:38.654Z,91.80
2022-11-15T22:19:02.451Z,91.90
2022-11-15T22:22:25.951Z,91.90
2022-11-15T22:25:51.119Z,92.00
2022-11-15T22:29:14.605Z,92.00
2022-11-15T22:32:38.105Z,92.10
2022-11-15T22:36:02.345Z,92.10
2022-11-15T22:39:25.812Z,92.10
2022-11-15T22:42:51.358Z,92.10
2022-11-15T22:46:15.271Z,92.00
2022-11-15T22:49:38.842Z,92.10
2022-11-15T22:53:02.408Z,92.00
2022-11-15T22:56:25.933Z,91.70
2022-11-15T22:59:50.922Z,91.50
2022-11-15T23:03:14.707Z,91.20
2022-11-15T23:06:38.356Z,91.20
2022-11-15T23:10:25.421Z,91.10
2022-11-15T23:13:51.879Z,91.20
2022-11-15T23:17:17.041Z,91.20
2022-11-15T23:20:44.016Z,91.50
2022-11-15T23:24:09.884Z,91.40
2022-11-15T23:27:33.437Z,91.50
2022-11-15T23:31:22.347Z,91.50
2022-11-15T23:34:47.506Z,91.40
2022-11-15T23:38:11.164Z,91.50
2022-11-15T23:41:35.065Z,91.60
2022-11-15T23:44:58.694Z,91.60
2022-11-15T23:48:22.311Z,91.60
2022-11-15T23:51:47.643Z,91.40
2022-11-15T23:55:11.698Z,91.30
2022-11-15T23:58:35.963Z,91.50
